sensor_id;sensor_type;location;lat;lon;timestamp;P1;durP1;ratioP1;P2;durP2;ratioP2
18364;SDS011;9309;52.126;11.616;2022-12-10T00:00:26;51.70;;;20.00;;
18364;SDS011;9309;52.126;11.616;2022-12-10T00:02:52;49.60;;;19.47;;
18364;SDS011;9309;52.126;11.616;2022-12-10T00:05:22;59.43;;;21.23;;
18364;SDS011;9309;52.126;11.616;2022-12-10T00:07:49;53.07;;;20.53;;
18364;SDS011;9309;52.126;11.616;2022-12-10T00:10:16;54.97;;;20.63;;
18364;SDS011;9309;52.126;11.616;2022-12-10T00:12:43;56.70;;;20.73;;
18364;SDS011;9309;52.126;11.616;2022-12-10T00:15:10;47.63;;;18.57;;
18364;SDS011;9309;52.126;11.616;2022-12-10T00:17:37;50.23;;;18.47;;
18364;SDS011;9309;52.126;11.616;2022-12-10T00:20:04;49.37;;;19.07;;
18364;SDS011;9309;52.126;11.616;2022-12-10T00:22:33;44.77;;;17.77;;
18364;SDS011;9309;52.126;11.616;2022-12-10T00:25:00;50.43;;;18.47;;
18364;SDS011;9309;52.126;11.616;2022-12-10T00:27:27;43.40;;;18.67;;
18364;SDS011;9309;52.126;11.616;2022-12-10T00:29:54;45.10;;;19.50;;
18364;SDS011;9309;52.126;11.616;2022-12-10T00:32:21;47.13;;;18.50;;
18364;SDS011;9309;52.126;11.616;2022-12-10T00:34:47;50.20;;;19.20;;
18364;SDS011;9309;52.126;11.616;2022-12-10T00:37:14;44.13;;;18.50;;
18364;SDS011;9309;52.126;11.616;2022-12-10T00:39:43;48.40;;;18.90;;
18364;SDS011;9309;52.126;11.616;2022-12-10T00:42:11;51.27;;;19.30;;
18364;SDS011;9309;52.126;11.616;2022-12-10T00:44:38;42.23;;;17.43;;
18364;SDS011;9309;52.126;11.616;2022-12-10T00:47:05;48.07;;;18.87;;
18364;SDS011;9309;52.126;11.616;2022-12-10T00:49:32;47.10;;;18.17;;
18364;SDS011;9309;52.126;11.616;2022-12-10T00:51:58;54.17;;;18.73;;
18364;SDS011;9309;52.126;11.616;2022-12-10T00:54:25;53.23;;;20.50;;
18364;SDS011;9309;52.126;11.616;2022-12-10T00:56:53;49.03;;;19.63;;
18364;SDS011;9309;52.126;11.616;2022-12-10T00:59:20;50.93;;;18.87;;
18364;SDS011;9309;52.126;11.616;2022-12-10T01:01:47;43.90;;;17.77;;
18364;SDS011;9309;52.126;11.616;2022-12-10T01:04:16;48.07;;;19.73;;
18364;SDS011;9309;52.126;11.616;2022-12-10T01:06:44;49.97;;;18.67;;
18364;SDS011;9309;52.126;11.616;2022-12-10T01:09:13;52.80;;;19.00;;
18364;SDS011;9309;52.126;11.616;2022-12-10T01:11:42;47.77;;;18.47;;
18364;SDS011;9309;52.126;11.616;2022-12-10T01:14:12;39.93;;;16.40;;
18364;SDS011;9309;52.126;11.616;2022-12-10T01:16:42;44.03;;;18.57;;
18364;SDS011;9309;52.126;11.616;2022-12-10T01:19:09;40.70;;;17.47;;
18364;SDS011;9309;52.126;11.616;2022-12-10T01:21:36;46.80;;;18.13;;
18364;SDS011;9309;52.126;11.616;2022-12-10T01:24:03;48.43;;;18.27;;
18364;SDS011;9309;52.126;11.616;2022-12-10T01:26:31;43.37;;;17.50;;
18364;SDS011;9309;52.126;11.616;2022-12-10T01:29:00;43.97;;;18.90;;
18364;SDS011;9309;52.126;11.616;2022-12-10T01:31:30;52.77;;;19.73;;
18364;SDS011;9309;52.126;11.616;2022-12-10T01:33:59;55.23;;;21.47;;
18364;SDS011;9309;52.126;11.616;2022-12-10T01:36:27;39.57;;;17.17;;
18364;SDS011;9309;52.126;11.616;2022-12-10T01:38:55;42.70;;;17.73;;
18364;SDS011;9309;52.126;11.616;2022-12-10T01:41:23;42.47;;;17.10;;
18364;SDS011;9309;52.126;11.616;2022-12-10T01:43:54;46.80;;;18.33;;
18364;SDS011;9309;52.126;11.616;2022-12-10T01:46:23;45.73;;;17.90;;
18364;SDS011;9309;52.126;11.616;2022-12-10T01:48:53;42.43;;;17.87;;
18364;SDS011;9309;52.126;11.616;2022-12-10T01:51:20;49.17;;;18.27;;
18364;SDS011;9309;52.126;11.616;2022-12-10T01:53:48;47.87;;;19.20;;
18364;SDS011;9309;52.126;11.616;2022-12-10T01:56:16;48.73;;;18.23;;
18364;SDS011;9309;52.126;11.616;2022-12-10T01:58:45;58.90;;;21.17;;
18364;SDS011;9309;52.126;11.616;2022-12-10T02:01:14;47.50;;;18.63;;
18364;SDS011;9309;52.126;11.616;2022-12-10T02:03:55;44.47;;;18.17;;
18364;SDS011;9309;52.126;11.616;2022-12-10T02:06:32;49.87;;;19.47;;
18364;SDS011;9309;52.126;11.616;2022-12-10T02:09:10;47.17;;;19.63;;
18364;SDS011;9309;52.126;11.616;2022-12-10T02:11:42;56.17;;;20.87;;
18364;SDS011;9309;52.126;11.616;2022-12-10T02:14:14;50.50;;;20.80;;
18364;SDS011;9309;52.126;11.616;2022-12-10T02:16:47;52.67;;;20.13;;
18364;SDS011;9309;52.126;11.616;2022-12-10T02:19:21;47.83;;;19.20;;
18364;SDS011;9309;52.126;11.616;2022-12-10T02:21:55;51.87;;;19.70;;
18364;SDS011;9309;52.126;11.616;2022-12-10T02:24:25;60.00;;;22.00;;
18364;SDS011;9309;52.126;11.616;2022-12-10T02:26:58;54.53;;;20.93;;
18364;SDS011;9309;52.126;11.616;2022-12-10T02:29:32;60.23;;;22.30;;
18364;SDS011;9309;52.126;11.616;2022-12-10T02:32:01;62.43;;;22.23;;
18364;SDS011;9309;52.126;11.616;2022-12-10T02:34:33;63.27;;;21.90;;
18364;SDS011;9309;52.126;11.616;2022-12-10T02:37:06;72.40;;;23.20;;
18364;SDS011;9309;52.126;11.616;2022-12-10T02:39:38;60.67;;;22.83;;
18364;SDS011;9309;52.126;11.616;2022-12-10T02:42:08;64.83;;;22.03;;
18364;SDS011;9309;52.126;11.616;2022-12-10T02:44:40;72.60;;;22.83;;
18364;SDS011;9309;52.126;11.616;2022-12-10T02:47:09;67.37;;;22.87;;
18364;SDS011;9309;52.126;11.616;2022-12-10T02:49:41;55.77;;;21.00;;
18364;SDS011;9309;52.126;11.616;2022-12-10T02:52:12;60.90;;;22.03;;
18364;SDS011;9309;52.126;11.616;2022-12-10T02:54:44;63.13;;;22.33;;
18364;SDS011;9309;52.126;11.616;2022-12-10T02:57:28;69.30;;;22.60;;
18364;SDS011;9309;52.126;11.616;2022-12-10T03:00:07;57.07;;;20.20;;
18364;SDS011;9309;52.126;11.616;2022-12-10T03:05:35;67.23;;;23.03;;
18364;SDS011;9309;52.126;11.616;2022-12-10T03:08:08;65.43;;;23.27;;
18364;SDS011;9309;52.126;11.616;2022-12-10T03:10:41;63.20;;;22.77;;
18364;SDS011;9309;52.126;11.616;2022-12-10T03:13:12;61.27;;;22.30;;
18364;SDS011;9309;52.126;11.616;2022-12-10T03:15:43;69.10;;;22.63;;
18364;SDS011;9309;52.126;11.616;2022-12-10T03:18:12;62.53;;;22.50;;
18364;SDS011;9309;52.126;11.616;2022-12-10T03:20:43;65.57;;;23.07;;
18364;SDS011;9309;52.126;11.616;2022-12-10T03:23:14;61.17;;;21.93;;
18364;SDS011;9309;52.126;11.616;2022-12-10T03:25:43;56.73;;;21.80;;
18364;SDS011;9309;52.126;11.616;2022-12-10T03:28:12;70.50;;;22.83;;
18364;SDS011;9309;52.126;11.616;2022-12-10T03:30:40;48.53;;;19.60;;
18364;SDS011;9309;52.126;11.616;2022-12-10T03:33:09;52.50;;;21.20;;
18364;SDS011;9309;52.126;11.616;2022-12-10T03:35:37;55.30;;;21.03;;
18364;SDS011;9309;52.126;11.616;2022-12-10T03:38:05;57.47;;;22.63;;
18364;SDS011;9309;52.126;11.616;2022-12-10T03:40:32;53.63;;;20.97;;
18364;SDS011;9309;52.126;11.616;2022-12-10T03:42:59;55.30;;;20.33;;
18364;SDS011;9309;52.126;11.616;2022-12-10T03:45:26;49.80;;;20.13;;
18364;SDS011;9309;52.126;11.616;2022-12-10T03:47:53;51.33;;;21.13;;
18364;SDS011;9309;52.126;11.616;2022-12-10T03:50:21;55.17;;;20.23;;
18364;SDS011;9309;52.126;11.616;2022-12-10T03:52:48;39.00;;;16.90;;
18364;SDS011;9309;52.126;11.616;2022-12-10T03:55:15;43.27;;;18.70;;
18364;SDS011;9309;52.126;11.616;2022-12-10T03:57:42;46.07;;;17.93;;
18364;SDS011;9309;52.126;11.616;2022-12-10T04:00:09;45.40;;;18.00;;
18364;SDS011;9309;52.126;11.616;2022-12-10T04:02:40;49.80;;;19.17;;
18364;SDS011;9309;52.126;11.616;2022-12-10T04:05:07;47.90;;;18.43;;
18364;SDS011;9309;52.126;11.616;2022-12-10T04:07:35;40.87;;;18.67;;
18364;SDS011;9309;52.126;11.616;2022-12-10T04:10:03;54.23;;;20.20;;
18364;SDS011;9309;52.126;11.616;2022-12-10T04:12:30;46.00;;;18.60;;
18364;SDS011;9309;52.126;11.616;2022-12-10T04:14:57;50.00;;;20.27;;
18364;SDS011;9309;52.126;11.616;2022-12-10T04:17:41;48.60;;;19.27;;
18364;SDS011;9309;52.126;11.616;2022-12-10T04:20:08;58.33;;;21.80;;
18364;SDS011;9309;52.126;11.616;2022-12-10T04:22:58;52.83;;;19.90;;
18364;SDS011;9309;52.126;11.616;2022-12-10T04:25:42;52.50;;;20.13;;
18364;SDS011;9309;52.126;11.616;2022-12-10T04:28:26;54.73;;;20.97;;
18364;SDS011;9309;52.126;11.616;2022-12-10T04:30:53;52.07;;;20.67;;
18364;SDS011;9309;52.126;11.616;2022-12-10T04:33:20;51.27;;;20.80;;
18364;SDS011;9309;52.126;11.616;2022-12-10T04:35:47;56.93;;;20.83;;
18364;SDS011;9309;52.126;11.616;2022-12-10T04:38:15;55.37;;;21.47;;
18364;SDS011;9309;52.126;11.616;2022-12-10T04:40:42;51.70;;;20.10;;
18364;SDS011;9309;52.126;11.616;2022-12-10T04:43:09;50.37;;;19.77;;
18364;SDS011;9309;52.126;11.616;2022-12-10T04:45:36;46.97;;;19.63;;
18364;SDS011;9309;52.126;11.616;2022-12-10T04:48:04;62.17;;;23.00;;
18364;SDS011;9309;52.126;11.616;2022-12-10T04:50:32;53.67;;;21.47;;
18364;SDS011;9309;52.126;11.616;2022-12-10T04:52:59;53.67;;;21.20;;
18364;SDS011;9309;52.126;11.616;2022-12-10T04:55:27;62.73;;;22.53;;
18364;SDS011;9309;52.126;11.616;2022-12-10T04:57:54;58.47;;;22.33;;
18364;SDS011;9309;52.126;11.616;2022-12-10T05:00:22;58.40;;;22.37;;
18364;SDS011;9309;52.126;11.616;2022-12-10T05:02:49;64.30;;;23.97;;
18364;SDS011;9309;52.126;11.616;2022-12-10T05:05:16;63.83;;;23.57;;
18364;SDS011;9309;52.126;11.616;2022-12-10T05:07:43;62.57;;;23.17;;
18364;SDS011;9309;52.126;11.616;2022-12-10T05:10:10;69.30;;;24.33;;
18364;SDS011;9309;52.126;11.616;2022-12-10T05:12:38;56.90;;;22.53;;
18364;SDS011;9309;52.126;11.616;2022-12-10T05:15:06;63.23;;;23.53;;
18364;SDS011;9309;52.126;11.616;2022-12-10T05:17:33;63.77;;;22.70;;
18364;SDS011;9309;52.126;11.616;2022-12-10T05:20:00;57.80;;;21.53;;
18364;SDS011;9309;52.126;11.616;2022-12-10T05:22:27;51.73;;;20.07;;
18364;SDS011;9309;52.126;11.616;2022-12-10T05:25:12;55.60;;;21.27;;
18364;SDS011;9309;52.126;11.616;2022-12-10T05:27:40;52.60;;;20.30;;
18364;SDS011;9309;52.126;11.616;2022-12-10T05:30:07;52.97;;;19.97;;
18364;SDS011;9309;52.126;11.616;2022-12-10T05:32:35;46.10;;;18.93;;
18364;SDS011;9309;52.126;11.616;2022-12-10T05:35:03;51.73;;;17.30;;
18364;SDS011;9309;52.126;11.616;2022-12-10T05:37:31;51.50;;;17.17;;
18364;SDS011;9309;52.126;11.616;2022-12-10T05:39:58;51.47;;;18.37;;
18364;SDS011;9309;52.126;11.616;2022-12-10T05:42:25;60.00;;;19.70;;
18364;SDS011;9309;52.126;11.616;2022-12-10T05:44:53;52.23;;;18.97;;
18364;SDS011;9309;52.126;11.616;2022-12-10T05:47:20;54.50;;;18.87;;
18364;SDS011;9309;52.126;11.616;2022-12-10T05:49:47;52.30;;;18.23;;
18364;SDS011;9309;52.126;11.616;2022-12-10T05:52:14;56.07;;;18.80;;
18364;SDS011;9309;52.126;11.616;2022-12-10T05:54:41;54.30;;;19.10;;
18364;SDS011;9309;52.126;11.616;2022-12-10T05:57:08;59.90;;;20.63;;
18364;SDS011;9309;52.126;11.616;2022-12-10T05:59:35;62.00;;;20.43;;
18364;SDS011;9309;52.126;11.616;2022-12-10T06:02:03;56.70;;;19.83;;
18364;SDS011;9309;52.126;11.616;2022-12-10T06:04:30;59.93;;;20.93;;
18364;SDS011;9309;52.126;11.616;2022-12-10T06:06:57;56.17;;;19.93;;
18364;SDS011;9309;52.126;11.616;2022-12-10T06:09:24;57.83;;;21.97;;
18364;SDS011;9309;52.126;11.616;2022-12-10T06:11:50;64.83;;;22.93;;
18364;SDS011;9309;52.126;11.616;2022-12-10T06:14:17;69.63;;;21.97;;
18364;SDS011;9309;52.126;11.616;2022-12-10T06:16:44;61.77;;;21.43;;
18364;SDS011;9309;52.126;11.616;2022-12-10T06:19:12;62.00;;;20.23;;
18364;SDS011;9309;52.126;11.616;2022-12-10T06:21:39;55.23;;;21.10;;
18364;SDS011;9309;52.126;11.616;2022-12-10T06:24:06;64.03;;;21.83;;
18364;SDS011;9309;52.126;11.616;2022-12-10T06:26:33;60.50;;;21.63;;
18364;SDS011;9309;52.126;11.616;2022-12-10T06:29:00;65.07;;;21.93;;
18364;SDS011;9309;52.126;11.616;2022-12-10T06:31:29;59.87;;;20.43;;
18364;SDS011;9309;52.126;11.616;2022-12-10T06:33:56;53.23;;;20.90;;
18364;SDS011;9309;52.126;11.616;2022-12-10T06:36:25;57.77;;;19.90;;
18364;SDS011;9309;52.126;11.616;2022-12-10T06:38:52;60.27;;;21.93;;
18364;SDS011;9309;52.126;11.616;2022-12-10T06:41:19;55.23;;;19.50;;
18364;SDS011;9309;52.126;11.616;2022-12-10T06:43:46;66.07;;;21.03;;
18364;SDS011;9309;52.126;11.616;2022-12-10T06:46:14;59.03;;;21.30;;
18364;SDS011;9309;52.126;11.616;2022-12-10T06:48:42;50.67;;;19.20;;
18364;SDS011;9309;52.126;11.616;2022-12-10T06:51:09;55.57;;;19.90;;
18364;SDS011;9309;52.126;11.616;2022-12-10T06:53:39;54.13;;;19.90;;
18364;SDS011;9309;52.126;11.616;2022-12-10T06:56:07;53.23;;;19.60;;
18364;SDS011;9309;52.126;11.616;2022-12-10T06:58:38;51.20;;;18.93;;
18364;SDS011;9309;52.126;11.616;2022-12-10T07:01:08;59.67;;;21.13;;
18364;SDS011;9309;52.126;11.616;2022-12-10T07:03:36;58.13;;;21.63;;
18364;SDS011;9309;52.126;11.616;2022-12-10T07:06:04;59.10;;;21.27;;
18364;SDS011;9309;52.126;11.616;2022-12-10T07:08:33;65.93;;;20.27;;
18364;SDS011;9309;52.126;11.616;2022-12-10T07:11:04;68.23;;;20.70;;
18364;SDS011;9309;52.126;11.616;2022-12-10T07:13:31;54.57;;;18.77;;
18364;SDS011;9309;52.126;11.616;2022-12-10T07:15:58;62.33;;;21.47;;
18364;SDS011;9309;52.126;11.616;2022-12-10T07:18:26;56.67;;;19.77;;
18364;SDS011;9309;52.126;11.616;2022-12-10T07:20:53;56.60;;;18.43;;
18364;SDS011;9309;52.126;11.616;2022-12-10T07:23:20;59.03;;;19.60;;
18364;SDS011;9309;52.126;11.616;2022-12-10T07:25:47;53.67;;;18.90;;
18364;SDS011;9309;52.126;11.616;2022-12-10T07:28:15;55.93;;;19.80;;
18364;SDS011;9309;52.126;11.616;2022-12-10T07:30:42;53.60;;;17.83;;
18364;SDS011;9309;52.126;11.616;2022-12-10T07:33:09;49.77;;;18.03;;
18364;SDS011;9309;52.126;11.616;2022-12-10T07:35:37;50.77;;;18.73;;
18364;SDS011;9309;52.126;11.616;2022-12-10T07:38:04;50.00;;;18.40;;
18364;SDS011;9309;52.126;11.616;2022-12-10T07:40:31;53.23;;;18.60;;
18364;SDS011;9309;52.126;11.616;2022-12-10T07:42:58;47.40;;;18.57;;
18364;SDS011;9309;52.126;11.616;2022-12-10T07:45:26;55.97;;;18.83;;
18364;SDS011;9309;52.126;11.616;2022-12-10T07:47:53;52.70;;;20.43;;
18364;SDS011;9309;52.126;11.616;2022-12-10T07:50:19;48.63;;;18.97;;
18364;SDS011;9309;52.126;11.616;2022-12-10T07:52:46;50.80;;;18.53;;
18364;SDS011;9309;52.126;11.616;2022-12-10T07:55:13;57.23;;;19.20;;
18364;SDS011;9309;52.126;11.616;2022-12-10T07:57:40;45.73;;;17.97;;
18364;SDS011;9309;52.126;11.616;2022-12-10T08:00:08;54.63;;;19.40;;
18364;SDS011;9309;52.126;11.616;2022-12-10T08:02:40;54.23;;;19.73;;
18364;SDS011;9309;52.126;11.616;2022-12-10T08:05:07;51.47;;;17.77;;
18364;SDS011;9309;52.126;11.616;2022-12-10T08:07:35;48.27;;;17.60;;
18364;SDS011;9309;52.126;11.616;2022-12-10T08:10:02;49.03;;;18.73;;
18364;SDS011;9309;52.126;11.616;2022-12-10T08:12:30;50.57;;;18.77;;
18364;SDS011;9309;52.126;11.616;2022-12-10T08:14:57;53.07;;;19.53;;
18364;SDS011;9309;52.126;11.616;2022-12-10T08:17:24;49.83;;;18.27;;
18364;SDS011;9309;52.126;11.616;2022-12-10T08:19:52;48.03;;;19.63;;
18364;SDS011;9309;52.126;11.616;2022-12-10T08:22:19;52.00;;;17.43;;
18364;SDS011;9309;52.126;11.616;2022-12-10T08:24:46;50.27;;;20.10;;
18364;SDS011;9309;52.126;11.616;2022-12-10T08:27:13;55.37;;;18.70;;
18364;SDS011;9309;52.126;11.616;2022-12-10T08:29:40;53.90;;;19.53;;
18364;SDS011;9309;52.126;11.616;2022-12-10T08:32:07;56.73;;;20.10;;
18364;SDS011;9309;52.126;11.616;2022-12-10T08:34:34;59.00;;;20.13;;
18364;SDS011;9309;52.126;11.616;2022-12-10T08:37:02;56.83;;;19.57;;
18364;SDS011;9309;52.126;11.616;2022-12-10T08:39:30;54.37;;;19.93;;
18364;SDS011;9309;52.126;11.616;2022-12-10T08:41:58;59.37;;;21.07;;
18364;SDS011;9309;52.126;11.616;2022-12-10T08:48:12;58.57;;;20.67;;
18364;SDS011;9309;52.126;11.616;2022-12-10T08:50:39;55.40;;;19.43;;
18364;SDS011;9309;52.126;11.616;2022-12-10T08:53:07;55.17;;;18.03;;
18364;SDS011;9309;52.126;11.616;2022-12-10T08:55:37;46.77;;;18.50;;
18364;SDS011;9309;52.126;11.616;2022-12-10T08:58:04;49.50;;;18.70;;
18364;SDS011;9309;52.126;11.616;2022-12-10T09:00:31;51.20;;;20.30;;
18364;SDS011;9309;52.126;11.616;2022-12-10T09:02:58;47.60;;;19.13;;
18364;SDS011;9309;52.126;11.616;2022-12-10T09:05:25;46.13;;;19.47;;
18364;SDS011;9309;52.126;11.616;2022-12-10T09:07:52;49.37;;;19.63;;
18364;SDS011;9309;52.126;11.616;2022-12-10T09:10:20;45.93;;;18.43;;
18364;SDS011;9309;52.126;11.616;2022-12-10T09:12:47;47.97;;;18.67;;
18364;SDS011;9309;52.126;11.616;2022-12-10T09:15:14;46.97;;;20.07;;
18364;SDS011;9309;52.126;11.616;2022-12-10T09:17:41;43.03;;;18.27;;
18364;SDS011;9309;52.126;11.616;2022-12-10T09:20:08;50.53;;;19.03;;
18364;SDS011;9309;52.126;11.616;2022-12-10T09:22:35;50.30;;;18.77;;
18364;SDS011;9309;52.126;11.616;2022-12-10T09:25:03;47.77;;;19.53;;
18364;SDS011;9309;52.126;11.616;2022-12-10T09:27:32;47.57;;;17.93;;
18364;SDS011;9309;52.126;11.616;2022-12-10T09:30:00;39.67;;;17.23;;
18364;SDS011;9309;52.126;11.616;2022-12-10T09:32:27;42.40;;;17.70;;
18364;SDS011;9309;52.126;11.616;2022-12-10T09:34:54;44.43;;;19.03;;
18364;SDS011;9309;52.126;11.616;2022-12-10T09:37:20;50.30;;;19.47;;
18364;SDS011;9309;52.126;11.616;2022-12-10T09:39:47;48.10;;;19.17;;
18364;SDS011;9309;52.126;11.616;2022-12-10T09:42:19;47.80;;;19.47;;
18364;SDS011;9309;52.126;11.616;2022-12-10T09:45:00;41.83;;;18.10;;
18364;SDS011;9309;52.126;11.616;2022-12-10T09:47:33;42.53;;;18.50;;
18364;SDS011;9309;52.126;11.616;2022-12-10T09:50:07;41.00;;;17.90;;
18364;SDS011;9309;52.126;11.616;2022-12-10T09:52:39;44.37;;;17.87;;
18364;SDS011;9309;52.126;11.616;2022-12-10T09:55:10;44.83;;;17.47;;
18364;SDS011;9309;52.126;11.616;2022-12-10T09:57:41;42.50;;;17.57;;
18364;SDS011;9309;52.126;11.616;2022-12-10T10:00:17;40.67;;;18.23;;
18364;SDS011;9309;52.126;11.616;2022-12-10T10:02:46;45.03;;;19.40;;
18364;SDS011;9309;52.126;11.616;2022-12-10T10:05:16;47.43;;;18.23;;
18364;SDS011;9309;52.126;11.616;2022-12-10T10:07:48;40.13;;;17.50;;
18364;SDS011;9309;52.126;11.616;2022-12-10T10:10:22;40.90;;;16.90;;
18364;SDS011;9309;52.126;11.616;2022-12-10T10:12:52;49.27;;;17.83;;
18364;SDS011;9309;52.126;11.616;2022-12-10T10:15:24;36.90;;;16.77;;
18364;SDS011;9309;52.126;11.616;2022-12-10T10:17:54;38.83;;;17.13;;
18364;SDS011;9309;52.126;11.616;2022-12-10T10:20:24;37.70;;;15.87;;
18364;SDS011;9309;52.126;11.616;2022-12-10T10:22:55;41.90;;;17.60;;
18364;SDS011;9309;52.126;11.616;2022-12-10T10:25:24;43.50;;;16.97;;
18364;SDS011;9309;52.126;11.616;2022-12-10T10:27:51;39.90;;;16.50;;
18364;SDS011;9309;52.126;11.616;2022-12-10T10:30:18;42.57;;;16.67;;
18364;SDS011;9309;52.126;11.616;2022-12-10T10:32:49;39.70;;;15.43;;
18364;SDS011;9309;52.126;11.616;2022-12-10T10:35:21;39.93;;;16.17;;
18364;SDS011;9309;52.126;11.616;2022-12-10T10:37:50;40.67;;;16.87;;
18364;SDS011;9309;52.126;11.616;2022-12-10T10:40:22;35.40;;;15.50;;
18364;SDS011;9309;52.126;11.616;2022-12-10T10:42:51;39.33;;;16.10;;
18364;SDS011;9309;52.126;11.616;2022-12-10T10:45:32;34.93;;;15.73;;
18364;SDS011;9309;52.126;11.616;2022-12-10T10:48:17;43.20;;;17.43;;
18364;SDS011;9309;52.126;11.616;2022-12-10T10:50:46;33.73;;;14.50;;
18364;SDS011;9309;52.126;11.616;2022-12-10T10:53:25;41.07;;;17.57;;
18364;SDS011;9309;52.126;11.616;2022-12-10T10:55:55;38.40;;;17.93;;
18364;SDS011;9309;52.126;11.616;2022-12-10T10:58:25;35.63;;;14.57;;
18364;SDS011;9309;52.126;11.616;2022-12-10T11:00:56;36.73;;;15.60;;
18364;SDS011;9309;52.126;11.616;2022-12-10T11:03:28;31.67;;;15.13;;
18364;SDS011;9309;52.126;11.616;2022-12-10T11:05:56;31.20;;;15.07;;
18364;SDS011;9309;52.126;11.616;2022-12-10T11:08:25;30.73;;;14.97;;
18364;SDS011;9309;52.126;11.616;2022-12-10T11:10:56;38.13;;;16.40;;
18364;SDS011;9309;52.126;11.616;2022-12-10T11:13:28;34.97;;;15.60;;
18364;SDS011;9309;52.126;11.616;2022-12-10T11:15:58;30.97;;;15.70;;
18364;SDS011;9309;52.126;11.616;2022-12-10T11:18:31;28.33;;;14.77;;
18364;SDS011;9309;52.126;11.616;2022-12-10T11:21:00;31.93;;;14.23;;
18364;SDS011;9309;52.126;11.616;2022-12-10T11:23:31;30.33;;;14.37;;
18364;SDS011;9309;52.126;11.616;2022-12-10T11:26:07;37.70;;;15.60;;
18364;SDS011;9309;52.126;11.616;2022-12-10T11:28:49;35.87;;;15.80;;
18364;SDS011;9309;52.126;11.616;2022-12-10T11:31:32;36.27;;;15.63;;
18364;SDS011;9309;52.126;11.616;2022-12-10T11:34:12;38.30;;;16.17;;
18364;SDS011;9309;52.126;11.616;2022-12-10T11:36:48;35.90;;;16.27;;
18364;SDS011;9309;52.126;11.616;2022-12-10T11:39:30;33.40;;;15.70;;
18364;SDS011;9309;52.126;11.616;2022-12-10T11:42:13;36.63;;;15.17;;
18364;SDS011;9309;52.126;11.616;2022-12-10T11:44:49;36.00;;;16.50;;
18364;SDS011;9309;52.126;11.616;2022-12-10T11:47:29;35.83;;;15.57;;
18364;SDS011;9309;52.126;11.616;2022-12-10T11:50:13;35.10;;;16.03;;
18364;SDS011;9309;52.126;11.616;2022-12-10T11:55:43;42.70;;;17.57;;
18364;SDS011;9309;52.126;11.616;2022-12-10T11:58:23;41.67;;;17.30;;
18364;SDS011;9309;52.126;11.616;2022-12-10T12:01:02;36.30;;;16.27;;
18364;SDS011;9309;52.126;11.616;2022-12-10T12:03:44;33.10;;;14.60;;
18364;SDS011;9309;52.126;11.616;2022-12-10T12:06:42;30.97;;;14.97;;
18364;SDS011;9309;52.126;11.616;2022-12-10T12:09:20;28.77;;;14.93;;
18364;SDS011;9309;52.126;11.616;2022-12-10T12:11:56;33.23;;;16.00;;
18364;SDS011;9309;52.126;11.616;2022-12-10T12:14:32;35.63;;;15.07;;
18364;SDS011;9309;52.126;11.616;2022-12-10T12:17:07;34.03;;;14.93;;
18364;SDS011;9309;52.126;11.616;2022-12-10T12:19:38;33.13;;;14.60;;
18364;SDS011;9309;52.126;11.616;2022-12-10T12:22:13;32.57;;;15.73;;
18364;SDS011;9309;52.126;11.616;2022-12-10T12:24:42;31.20;;;14.83;;
18364;SDS011;9309;52.126;11.616;2022-12-10T12:27:16;31.80;;;15.67;;
18364;SDS011;9309;52.126;11.616;2022-12-10T12:29:52;31.17;;;15.00;;
18364;SDS011;9309;52.126;11.616;2022-12-10T12:32:25;34.90;;;14.97;;
18364;SDS011;9309;52.126;11.616;2022-12-10T12:34:56;30.23;;;15.57;;
18364;SDS011;9309;52.126;11.616;2022-12-10T12:37:30;30.87;;;14.67;;
18364;SDS011;9309;52.126;11.616;2022-12-10T12:40:03;25.77;;;13.27;;
18364;SDS011;9309;52.126;11.616;2022-12-10T12:42:38;30.50;;;13.37;;
18364;SDS011;9309;52.126;11.616;2022-12-10T12:45:13;24.70;;;13.20;;
18364;SDS011;9309;52.126;11.616;2022-12-10T12:47:46;22.73;;;12.40;;
18364;SDS011;9309;52.126;11.616;2022-12-10T12:50:20;25.63;;;13.83;;
18364;SDS011;9309;52.126;11.616;2022-12-10T12:52:53;28.70;;;13.13;;
18364;SDS011;9309;52.126;11.616;2022-12-10T12:55:24;26.37;;;13.50;;
18364;SDS011;9309;52.126;11.616;2022-12-10T12:58:01;22.87;;;13.03;;
18364;SDS011;9309;52.126;11.616;2022-12-10T13:00:37;25.83;;;12.80;;
18364;SDS011;9309;52.126;11.616;2022-12-10T13:03:08;27.50;;;13.83;;
18364;SDS011;9309;52.126;11.616;2022-12-10T13:05:50;31.20;;;14.23;;
18364;SDS011;9309;52.126;11.616;2022-12-10T13:08:30;25.70;;;12.97;;
18364;SDS011;9309;52.126;11.616;2022-12-10T13:10:59;29.70;;;13.10;;
18364;SDS011;9309;52.126;11.616;2022-12-10T13:13:41;30.07;;;14.57;;
18364;SDS011;9309;52.126;11.616;2022-12-10T13:16:49;31.67;;;13.70;;
18364;SDS011;9309;52.126;11.616;2022-12-10T13:19:26;27.43;;;13.17;;
18364;SDS011;9309;52.126;11.616;2022-12-10T13:22:06;26.23;;;12.67;;
18364;SDS011;9309;52.126;11.616;2022-12-10T13:24:44;26.40;;;13.33;;
18364;SDS011;9309;52.126;11.616;2022-12-10T13:27:16;24.90;;;13.50;;
18364;SDS011;9309;52.126;11.616;2022-12-10T13:29:45;29.60;;;14.53;;
18364;SDS011;9309;52.126;11.616;2022-12-10T13:32:18;26.80;;;14.13;;
18364;SDS011;9309;52.126;11.616;2022-12-10T13:34:53;24.00;;;12.80;;
18364;SDS011;9309;52.126;11.616;2022-12-10T13:37:53;26.33;;;12.63;;
18364;SDS011;9309;52.126;11.616;2022-12-10T13:40:24;24.80;;;12.97;;
18364;SDS011;9309;52.126;11.616;2022-12-10T13:42:56;26.83;;;13.60;;
18364;SDS011;9309;52.126;11.616;2022-12-10T13:45:42;22.33;;;12.33;;
18364;SDS011;9309;52.126;11.616;2022-12-10T13:48:17;19.70;;;11.10;;
18364;SDS011;9309;52.126;11.616;2022-12-10T13:50:53;24.77;;;12.53;;
18364;SDS011;9309;52.126;11.616;2022-12-10T13:53:29;22.20;;;12.17;;
18364;SDS011;9309;52.126;11.616;2022-12-10T13:56:06;22.13;;;11.63;;
18364;SDS011;9309;52.126;11.616;2022-12-10T13:58:43;25.27;;;12.70;;
18364;SDS011;9309;52.126;11.616;2022-12-10T14:01:16;23.47;;;12.20;;
18364;SDS011;9309;52.126;11.616;2022-12-10T14:03:56;23.33;;;12.10;;
18364;SDS011;9309;52.126;11.616;2022-12-10T14:06:41;18.77;;;11.13;;
18364;SDS011;9309;52.126;11.616;2022-12-10T14:09:11;21.80;;;12.67;;
18364;SDS011;9309;52.126;11.616;2022-12-10T14:11:45;24.67;;;13.80;;
18364;SDS011;9309;52.126;11.616;2022-12-10T14:14:16;34.67;;;16.63;;
18364;SDS011;9309;52.126;11.616;2022-12-10T14:16:51;24.63;;;13.57;;
18364;SDS011;9309;52.126;11.616;2022-12-10T14:19:18;31.03;;;13.67;;
18364;SDS011;9309;52.126;11.616;2022-12-10T14:21:53;23.77;;;12.80;;
18364;SDS011;9309;52.126;11.616;2022-12-10T14:24:28;22.93;;;13.53;;
18364;SDS011;9309;52.126;11.616;2022-12-10T14:26:59;25.60;;;14.00;;
18364;SDS011;9309;52.126;11.616;2022-12-10T14:29:28;23.03;;;12.83;;
18364;SDS011;9309;52.126;11.616;2022-12-10T14:31:55;23.20;;;12.73;;
18364;SDS011;9309;52.126;11.616;2022-12-10T14:34:23;26.43;;;14.03;;
18364;SDS011;9309;52.126;11.616;2022-12-10T14:36:54;25.60;;;13.23;;
18364;SDS011;9309;52.126;11.616;2022-12-10T14:39:24;25.10;;;13.33;;
18364;SDS011;9309;52.126;11.616;2022-12-10T14:41:54;30.73;;;15.20;;
18364;SDS011;9309;52.126;11.616;2022-12-10T14:44:24;29.80;;;15.20;;
18364;SDS011;9309;52.126;11.616;2022-12-10T14:46:52;29.03;;;15.50;;
18364;SDS011;9309;52.126;11.616;2022-12-10T14:49:29;29.67;;;16.13;;